Time;durP1;ratioP1;P1;durP2;ratioP2;P2;SDS_P1;SDS_P2;PMS_P1;PMS_P2;Temp;Humidity;BMP_temperature;BMP_pressure;BME280_temperature;BME280_humidity;BME280_pressure;Samples;Min_cycle;Max_cycle;Signal;HPM_P1;HPM_P2
2021/09/16 00:00:59;;;;;;;14.20;3.42;;;16.30;99.90;;;;;;5043009;28;20664;-57
2021/09/16 00:03:25;;;;;;;9.07;3.63;;;16.20;99.90;;;;;;5026723;28;20033;-59
2021/09/16 00:05:51;;;;;;;8.82;3.47;;;16.30;99.90;;;;;;5028696;28;20522;-58
2021/09/16 00:08:17;;;;;;;9.15;3.45;;;16.30;99.90;;;;;;5024663;28;20521;-56
2021/09/16 00:10:43;;;;;;;9.15;3.85;;;16.30;99.90;;;;;;5028880;28;20061;-58
2021/09/16 00:13:09;;;;;;;11.05;4.72;;;16.30;99.90;;;;;;5028907;28;20017;-59
2021/09/16 00:15:34;;;;;;;12.23;5.00;;;16.20;99.90;;;;;;5029047;28;20084;-57
2021/09/16 00:18:00;;;;;;;10.48;4.13;;;16.20;99.90;;;;;;5028444;28;20026;-58
2021/09/16 00:20:26;;;;;;;7.60;4.93;;;16.20;99.90;;;;;;5028683;28;20025;-58
2021/09/16 00:22:52;;;;;;;12.73;5.97;;;16.20;99.90;;;;;;5044083;28;20068;-60
2021/09/16 00:25:17;;;;;;;12.88;6.25;;;16.10;99.90;;;;;;5028319;28;20057;-56
2021/09/16 00:27:43;;;;;;;10.93;5.28;;;16.20;99.90;;;;;;5028179;28;20065;-58
2021/09/16 00:30:10;;;;;;;11.13;6.15;;;16.10;99.90;;;;;;5028206;28;20025;-58
2021/09/16 00:32:37;;;;;;;13.90;5.85;;;16.10;99.90;;;;;;5028393;28;20025;-56
2021/09/16 00:35:04;;;;;;;15.73;6.05;;;16.10;99.90;;;;;;5028245;28;20067;-59
2021/09/16 00:37:30;;;;;;;17.15;6.65;;;16.10;99.90;;;;;;5027894;28;20392;-58
2021/09/16 00:39:55;;;;;;;8.90;5.53;;;16.00;99.90;;;;;;5028273;28;20026;-58
2021/09/16 00:42:21;;;;;;;10.98;6.00;;;16.10;99.90;;;;;;5027662;28;20104;-58
2021/09/16 00:44:47;;;;;;;13.02;6.07;;;16.00;99.90;;;;;;5028178;28;20090;-58
2021/09/16 00:47:16;;;;;;;14.63;6.20;;;16.00;99.90;;;;;;5027499;28;20049;-61
2021/09/16 00:49:42;;;;;;;9.88;6.93;;;16.00;99.90;;;;;;5028374;28;20023;-56
2021/09/16 00:52:09;;;;;;;12.60;6.50;;;16.00;99.90;;;;;;5027960;28;20029;-58
2021/09/16 00:54:36;;;;;;;20.77;7.40;;;15.90;99.90;;;;;;5028079;28;20488;-58
2021/09/16 00:57:04;;;;;;;12.40;7.30;;;16.00;99.90;;;;;;5027775;28;20041;-57
2021/09/16 00:59:31;;;;;;;16.73;6.40;;;15.90;99.90;;;;;;5024847;28;20038;-59
2021/09/16 01:01:57;;;;;;;14.50;6.25;;;15.90;99.90;;;;;;5026641;28;20538;-57
2021/09/16 01:04:22;;;;;;;15.85;7.30;;;15.80;99.90;;;;;;5043622;28;20053;-58
2021/09/16 01:06:48;;;;;;;15.48;7.22;;;15.80;99.90;;;;;;5027696;28;20037;-57
2021/09/16 01:09:13;;;;;;;13.48;7.72;;;15.80;99.90;;;;;;5028295;28;20431;-58
2021/09/16 01:11:39;;;;;;;19.60;7.20;;;15.80;99.90;;;;;;5029383;28;20025;-58
2021/09/16 01:14:07;;;;;;;11.77;6.82;;;15.80;99.90;;;;;;5027234;28;20028;-56
2021/09/16 01:16:33;;;;;;;12.45;6.78;;;15.70;99.90;;;;;;5024963;28;20026;-57
2021/09/16 01:18:58;;;;;;;13.13;6.57;;;15.70;99.90;;;;;;5024896;28;20091;-59
2021/09/16 01:21:24;;;;;;;15.73;6.72;;;15.70;99.90;;;;;;5026909;28;20021;-56
2021/09/16 01:23:50;;;;;;;12.63;6.47;;;15.60;99.90;;;;;;5018203;28;20057;-57
2021/09/16 01:26:16;;;;;;;16.35;6.10;;;15.50;99.90;;;;;;5023962;28;20087;-56
2021/09/16 01:28:41;;;;;;;11.57;6.47;;;15.50;99.90;;;;;;5019951;28;20429;-57
2021/09/16 01:31:07;;;;;;;17.23;5.88;;;15.40;99.90;;;;;;5027154;28;20064;-59
2021/09/16 01:33:32;;;;;;;13.45;5.63;;;15.30;99.90;;;;;;5029592;28;20511;-56
2021/09/16 01:35:58;;;;;;;8.25;4.25;;;15.20;99.90;;;;;;5026825;28;20029;-59
2021/09/16 01:38:23;;;;;;;9.45;4.10;;;15.10;99.90;;;;;;5024181;28;20018;-58
2021/09/16 01:40:49;;;;;;;6.32;3.00;;;15.00;99.90;;;;;;5024255;28;20026;-58
2021/09/16 01:43:15;;;;;;;9.63;3.05;;;14.80;99.90;;;;;;5026305;28;20033;-58
2021/09/16 01:45:41;;;;;;;10.55;3.10;;;14.80;99.90;;;;;;5022984;28;20025;-57
2021/09/16 01:48:07;;;;;;;8.63;2.20;;;14.70;99.90;;;;;;5021265;28;20021;-59
2021/09/16 01:50:33;;;;;;;8.57;2.53;;;14.70;99.90;;;;;;5022344;28;20025;-55
2021/09/16 01:52:58;;;;;;;9.80;2.28;;;14.70;99.90;;;;;;5029228;28;20033;-58
2021/09/16 01:55:24;;;;;;;10.77;2.45;;;14.60;99.90;;;;;;5026121;28;20060;-59
2021/09/16 01:57:50;;;;;;;5.90;2.13;;;14.70;99.90;;;;;;5027517;28;20057;-55
2021/09/16 02:00:16;;;;;;;9.25;2.20;;;14.70;99.90;;;;;;5009442;28;20030;-59
2021/09/16 02:02:43;;;;;;;6.43;1.55;;;14.70;99.90;;;;;;5022639;28;20029;-59
2021/09/16 02:05:09;;;;;;;3.72;2.03;;;14.70;99.90;;;;;;5010742;28;20029;-59
2021/09/16 02:07:35;;;;;;;9.48;2.20;;;14.70;99.90;;;;;;5029321;28;20026;-58
2021/09/16 02:10:01;;;;;;;2.90;2.10;;;14.70;99.90;;;;;;5031002;28;20028;-58
2021/09/16 02:12:26;;;;;;;4.97;2.10;;;14.70;99.90;;;;;;5032850;28;20069;-58
2021/09/16 02:14:52;;;;;;;4.55;1.90;;;14.60;99.90;;;;;;5028543;28;20036;-57
2021/09/16 02:17:17;;;;;;;10.20;2.13;;;14.60;99.90;;;;;;5028846;28;20036;-57
2021/09/16 02:19:43;;;;;;;5.57;1.77;;;14.60;99.90;;;;;;5033121;28;20037;-57
2021/09/16 02:22:09;;;;;;;6.30;2.20;;;14.60;99.90;;;;;;5020137;28;20076;-58
2021/09/16 02:24:35;;;;;;;8.48;2.83;;;14.70;99.90;;;;;;5032273;28;20516;-58
2021/09/16 02:27:00;;;;;;;8.20;2.38;;;14.60;99.90;;;;;;5031469;28;20733;-58
2021/09/16 02:29:26;;;;;;;5.30;2.30;;;14.50;99.90;;;;;;5032779;28;20025;-58
2021/09/16 02:31:51;;;;;;;7.00;2.05;;;14.50;99.90;;;;;;5032280;28;20030;-57
2021/09/16 02:34:17;;;;;;;12.73;2.97;;;14.40;99.90;;;;;;5031551;28;20021;-57
2021/09/16 02:36:43;;;;;;;5.97;1.90;;;14.40;99.90;;;;;;5032197;28;20061;-58
2021/09/16 02:39:09;;;;;;;10.25;1.95;;;14.40;99.90;;;;;;5030505;28;20018;-57
2021/09/16 02:41:34;;;;;;;5.15;1.98;;;14.40;99.90;;;;;;5032181;28;20029;-56
2021/09/16 02:44:00;;;;;;;5.90;1.80;;;14.30;99.90;;;;;;5031116;28;20051;-57
2021/09/16 02:46:25;;;;;;;10.80;2.22;;;14.30;99.90;;;;;;5031269;28;20048;-58
2021/09/16 02:48:51;;;;;;;8.77;2.03;;;14.20;99.90;;;;;;5030882;28;20097;-59
2021/09/16 02:51:17;;;;;;;5.25;2.10;;;14.20;99.90;;;;;;5032002;28;20104;-58
2021/09/16 02:53:43;;;;;;;8.57;2.53;;;14.10;99.90;;;;;;5029002;28;20043;-58
2021/09/16 02:56:08;;;;;;;12.10;2.60;;;14.00;99.90;;;;;;5029344;28;20460;-57
2021/09/16 02:58:34;;;;;;;9.30;2.08;;;14.00;99.90;;;;;;5029236;28;20036;-57
2021/09/16 03:01:00;;;;;;;5.20;1.92;;;14.00;99.90;;;;;;5030729;28;20140;-55
2021/09/16 03:03:25;;;;;;;15.40;2.53;;;13.90;99.90;;;;;;5031010;28;20026;-58
2021/09/16 03:05:51;;;;;;;12.68;2.92;;;13.80;99.90;;;;;;5031225;28;20083;-58
2021/09/16 03:08:16;;;;;;;8.50;2.00;;;13.80;99.90;;;;;;5027901;28;20373;-58
2021/09/16 03:10:42;;;;;;;7.90;2.40;;;13.70;99.90;;;;;;5028397;28;20478;-57
2021/09/16 03:13:07;;;;;;;10.32;2.30;;;13.60;99.90;;;;;;5029098;28;20537;-58
2021/09/16 03:15:33;;;;;;;5.13;2.45;;;13.50;99.90;;;;;;5030785;28;20511;-56
2021/09/16 03:17:58;;;;;;;15.00;2.53;;;13.40;99.90;;;;;;5028816;28;20120;-56
2021/09/16 03:20:24;;;;;;;9.00;2.53;;;13.40;99.90;;;;;;5030837;28;20068;-57
2021/09/16 03:22:50;;;;;;;4.72;2.33;;;13.30;99.90;;;;;;5030533;28;20081;-56
2021/09/16 03:25:16;;;;;;;8.15;3.20;;;13.20;99.90;;;;;;5030284;28;20053;-55
2021/09/16 03:27:42;;;;;;;9.07;3.00;;;13.20;99.90;;;;;;5032942;28;20022;-56
2021/09/16 03:30:11;;;;;;;11.98;3.45;;;13.10;99.90;;;;;;5029084;28;20393;-57
2021/09/16 03:32:37;;;;;;;6.28;2.58;;;13.10;99.90;;;;;;5031280;28;20096;-57
2021/09/16 03:35:02;;;;;;;7.93;2.70;;;13.00;99.90;;;;;;5030521;28;20168;-59
2021/09/16 03:37:28;;;;;;;12.63;3.47;;;13.00;99.90;;;;;;5030730;28;20067;-55
2021/09/16 03:39:54;;;;;;;6.75;2.70;;;12.90;99.90;;;;;;5029624;28;20556;-58
2021/09/16 03:42:20;;;;;;;10.13;3.17;;;12.90;99.90;;;;;;5022992;28;20507;-58
2021/09/16 03:44:46;;;;;;;9.23;2.88;;;12.80;99.90;;;;;;5030137;28;20065;-58
2021/09/16 03:47:11;;;;;;;9.32;2.67;;;12.80;99.90;;;;;;5028177;28;20389;-55
2021/09/16 03:49:39;;;;;;;11.40;3.00;;;12.70;99.90;;;;;;5023219;28;20029;-55
2021/09/16 03:52:06;;;;;;;9.85;2.70;;;12.70;99.90;;;;;;5026825;28;20119;-59
2021/09/16 03:54:32;;;;;;;8.82;2.80;;;12.70;99.90;;;;;;5030359;28;20029;-55
2021/09/16 03:56:58;;;;;;;6.28;2.60;;;12.70;99.90;;;;;;5030494;28;20040;-57
2021/09/16 03:59:23;;;;;;;8.45;2.70;;;12.60;99.90;;;;;;5027753;28;20037;-55
2021/09/16 04:01:49;;;;;;;9.52;3.65;;;12.60;99.90;;;;;;5030323;28;20032;-58
2021/09/16 04:04:14;;;;;;;12.60;4.28;;;12.60;99.90;;;;;;5030776;28;20133;-57
2021/09/16 04:06:40;;;;;;;11.98;2.78;;;12.50;99.90;;;;;;5030183;28;20026;-57
2021/09/16 04:09:06;;;;;;;12.32;2.97;;;12.40;99.90;;;;;;5026325;28;20025;-57
2021/09/16 04:11:31;;;;;;;9.52;2.90;;;12.40;99.90;;;;;;5029981;28;20029;-56
2021/09/16 04:13:57;;;;;;;11.20;3.15;;;12.30;99.90;;;;;;5028811;28;20040;-56
2021/09/16 04:16:22;;;;;;;8.38;3.53;;;12.30;99.90;;;;;;5029628;28;20029;-57
2021/09/16 04:18:48;;;;;;;8.07;3.15;;;12.30;99.90;;;;;;5027745;28;20041;-57
2021/09/16 04:21:13;;;;;;;11.43;3.05;;;12.20;99.90;;;;;;5030273;28;20240;-55
2021/09/16 04:23:39;;;;;;;10.57;3.00;;;12.20;99.90;;;;;;5029545;28;20516;-57
2021/09/16 04:26:04;;;;;;;9.63;3.30;;;12.20;99.90;;;;;;5029241;28;20029;-59
2021/09/16 04:28:30;;;;;;;11.40;3.53;;;12.10;99.90;;;;;;5029787;28;20491;-57
2021/09/16 04:30:56;;;;;;;8.65;3.30;;;12.20;99.90;;;;;;5025186;28;20400;-57
2021/09/16 04:33:21;;;;;;;10.52;4.15;;;12.20;99.90;;;;;;5013129;28;20469;-58
2021/09/16 04:35:47;;;;;;;14.55;4.00;;;12.20;99.90;;;;;;5025703;28;20458;-59
2021/09/16 04:38:15;;;;;;;13.13;3.72;;;12.30;99.90;;;;;;5029576;28;20045;-59
2021/09/16 04:40:41;;;;;;;8.52;3.47;;;12.30;99.90;;;;;;5029481;28;20306;-57
2021/09/16 04:43:07;;;;;;;10.18;3.60;;;12.40;99.90;;;;;;5025599;28;20055;-59
2021/09/16 04:45:33;;;;;;;12.60;3.72;;;12.40;99.90;;;;;;5028439;28;20508;-57
2021/09/16 04:47:58;;;;;;;6.93;3.28;;;12.60;99.90;;;;;;5010013;28;20038;-58
2021/09/16 04:50:24;;;;;;;12.52;3.50;;;12.60;99.90;;;;;;5029594;28;20029;-56
2021/09/16 04:52:50;;;;;;;9.43;3.75;;;12.70;99.90;;;;;;5029919;28;20037;-58
2021/09/16 04:55:15;;;;;;;11.63;4.90;;;12.80;99.90;;;;;;5029741;28;20022;-55
2021/09/16 04:57:41;;;;;;;10.95;3.70;;;12.90;99.90;;;;;;5026132;28;20072;-56
2021/09/16 05:00:08;;;;;;;16.15;4.03;;;13.00;99.90;;;;;;5027259;28;20026;-57
2021/09/16 05:02:34;;;;;;;15.13;3.92;;;13.00;99.90;;;;;;5029462;28;20107;-56
2021/09/16 05:04:59;;;;;;;22.27;3.78;;;13.10;99.90;;;;;;5021414;28;20068;-55
2021/09/16 05:07:25;;;;;;;8.15;3.17;;;13.10;99.90;;;;;;5028729;28;20523;-58
2021/09/16 05:09:50;;;;;;;9.82;4.70;;;13.20;99.90;;;;;;5027370;28;20024;-57
2021/09/16 05:12:16;;;;;;;11.10;2.88;;;13.20;99.90;;;;;;5025836;28;20396;-55
2021/09/16 05:14:41;;;;;;;8.68;3.55;;;13.20;99.90;;;;;;5029320;28;20370;-58
2021/09/16 05:17:07;;;;;;;12.75;4.90;;;13.30;99.90;;;;;;5027607;28;20045;-55
2021/09/16 05:19:32;;;;;;;11.27;3.58;;;13.30;99.90;;;;;;5026961;28;20083;-56
2021/09/16 05:21:58;;;;;;;5.78;3.20;;;13.30;99.90;;;;;;5028676;28;20037;-58
2021/09/16 05:24:23;;;;;;;10.95;3.50;;;13.30;99.90;;;;;;5029628;28;20783;-58
2021/09/16 05:26:49;;;;;;;13.82;4.32;;;13.30;99.90;;;;;;5028002;28;20114;-56
2021/09/16 05:29:15;;;;;;;11.95;3.40;;;13.30;99.90;;;;;;5027605;28;20057;-58
2021/09/16 05:31:41;;;;;;;10.32;3.38;;;13.30;99.90;;;;;;5024951;28;20022;-59
2021/09/16 05:34:06;;;;;;;13.70;3.85;;;13.20;99.90;;;;;;5028313;28;20026;-58
2021/09/16 05:36:32;;;;;;;10.23;4.28;;;13.20;99.90;;;;;;5029092;28;20733;-55
2021/09/16 05:38:58;;;;;;;12.40;4.10;;;13.30;99.90;;;;;;5023612;28;20079;-59
2021/09/16 05:41:24;;;;;;;12.65;4.40;;;13.30;99.90;;;;;;5026844;28;20033;-57
2021/09/16 05:43:50;;;;;;;10.93;4.85;;;13.40;99.90;;;;;;5025676;28;20046;-57
2021/09/16 05:46:16;;;;;;;13.45;4.13;;;13.40;99.90;;;;;;5030518;28;20554;-58
2021/09/16 05:48:42;;;;;;;10.52;4.30;;;13.40;99.90;;;;;;5031075;28;20021;-56
2021/09/16 05:51:07;;;;;;;13.93;4.57;;;13.50;99.90;;;;;;5028995;28;20022;-58
2021/09/16 05:53:33;;;;;;;11.88;5.15;;;13.50;99.90;;;;;;5030611;28;20044;-55
2021/09/16 05:55:59;;;;;;;12.80;4.95;;;13.50;99.90;;;;;;5030431;28;20033;-57
2021/09/16 05:58:24;;;;;;;12.63;5.53;;;13.50;99.90;;;;;;5024710;28;20021;-55
2021/09/16 06:00:50;;;;;;;23.88;6.35;;;13.60;99.90;;;;;;5029470;28;20160;-58
2021/09/16 06:03:16;;;;;;;16.90;5.72;;;13.60;99.90;;;;;;5028615;28;20025;-58
2021/09/16 06:05:41;;;;;;;12.38;6.13;;;13.60;99.90;;;;;;5030603;28;20025;-56
2021/09/16 06:08:07;;;;;;;12.93;5.43;;;13.60;99.90;;;;;;5029126;28;20443;-58
2021/09/16 06:10:32;;;;;;;12.55;6.28;;;13.70;99.90;;;;;;5032551;28;20160;-56
2021/09/16 06:12:58;;;;;;;15.45;6.15;;;13.80;99.90;;;;;;5032876;28;20110;-56
2021/09/16 06:15:24;;;;;;;8.88;4.70;;;13.80;99.90;;;;;;5032531;28;20036;-59
2021/09/16 06:17:50;;;;;;;16.60;6.07;;;13.90;99.90;;;;;;5029208;28;20397;-58
2021/09/16 06:20:15;;;;;;;13.68;5.45;;;14.00;99.90;;;;;;5032315;28;20100;-58
2021/09/16 06:22:41;;;;;;;9.70;5.18;;;14.00;99.90;;;;;;5033087;28;20033;-59
2021/09/16 06:25:07;;;;;;;14.75;5.30;;;14.00;99.90;;;;;;5032063;28;20499;-59
2021/09/16 06:27:33;;;;;;;9.95;4.28;;;14.10;99.90;;;;;;5032492;28;20036;-59
2021/09/16 06:29:59;;;;;;;8.65;4.85;;;14.20;99.90;;;;;;5032437;28;20025;-57
2021/09/16 06:32:24;;;;;;;12.32;4.88;;;14.50;99.90;;;;;;5032566;28;20029;-57
2021/09/16 06:34:50;;;;;;;8.75;4.50;;;14.70;99.90;;;;;;5030471;28;20083;-56
2021/09/16 06:37:16;;;;;;;15.07;5.13;;;14.90;99.90;;;;;;5032392;28;20087;-58
2021/09/16 06:39:43;;;;;;;6.50;4.30;;;15.20;99.90;;;;;;5030097;28;20032;-60
2021/09/16 06:42:08;;;;;;;12.27;4.40;;;15.50;99.90;;;;;;5032637;28;20056;-58
2021/09/16 06:44:34;;;;;;;13.15;4.38;;;15.80;99.90;;;;;;5032346;28;20057;-59
2021/09/16 06:46:59;;;;;;;10.77;3.83;;;15.90;99.90;;;;;;5030125;28;20033;-58
2021/09/16 06:49:25;;;;;;;7.30;4.40;;;16.00;99.90;;;;;;5031453;28;20026;-59
2021/09/16 06:51:51;;;;;;;9.60;4.00;;;15.80;99.90;;;;;;5032790;28;20051;-59
2021/09/16 06:54:16;;;;;;;11.00;4.30;;;15.80;99.90;;;;;;5031664;28;20481;-59
2021/09/16 06:56:42;;;;;;;10.50;4.45;;;15.80;99.90;;;;;;5031715;28;20025;-58
2021/09/16 06:59:07;;;;;;;14.05;4.70;;;15.90;99.90;;;;;;5031005;28;20029;-57
2021/09/16 07:01:33;;;;;;;10.63;4.43;;;16.10;99.90;;;;;;5008431;28;20057;-60
2021/09/16 07:03:59;;;;;;;16.73;4.85;;;16.10;99.90;;;;;;5030721;28;20876;-59
2021/09/16 07:06:25;;;;;;;15.43;4.60;;;16.00;99.90;;;;;;5030953;28;20030;-58
2021/09/16 07:08:52;;;;;;;12.63;4.72;;;16.20;99.90;;;;;;5028829;28;20083;-58
2021/09/16 07:11:18;;;;;;;13.20;4.90;;;16.30;99.90;;;;;;5027449;28;20029;-58
2021/09/16 07:13:44;;;;;;;12.82;5.18;;;16.50;99.90;;;;;;5022618;28;20620;-59
2021/09/16 07:16:10;;;;;;;8.40;3.92;;;16.70;99.90;;;;;;5025785;28;20017;-59
2021/09/16 07:18:35;;;;;;;10.00;4.05;;;16.90;99.90;;;;;;5025299;28;20049;-58
2021/09/16 07:21:04;;;;;;;10.85;4.22;;;17.00;99.90;;;;;;5030962;28;20502;-58
2021/09/16 07:23:30;;;;;;;11.68;4.05;;;17.10;99.90;;;;;;5030933;28;20025;-57
2021/09/16 07:25:55;;;;;;;18.25;4.93;;;17.30;99.90;;;;;;5029418;28;20076;-59
2021/09/16 07:28:21;;;;;;;14.27;5.45;;;17.00;99.90;;;;;;5031135;28;20670;-59
2021/09/16 07:30:46;;;;;;;18.23;4.38;;;16.90;99.90;;;;;;5027598;28;20117;-60
2021/09/16 07:33:12;;;;;;;13.15;5.18;;;17.00;99.90;;;;;;5030963;28;20052;-57
2021/09/16 07:35:38;;;;;;;12.63;5.13;;;16.80;99.90;;;;;;5025734;28;20029;-57
2021/09/16 07:38:05;;;;;;;15.63;4.85;;;16.60;99.90;;;;;;5030587;28;20496;-59
2021/09/16 07:40:32;;;;;;;15.13;5.57;;;16.70;99.90;;;;;;5027144;28;20032;-59
2021/09/16 07:42:57;;;;;;;12.50;4.10;;;16.70;99.90;;;;;;5030680;28;20472;-58
2021/09/16 07:45:23;;;;;;;9.30;4.45;;;16.80;99.90;;;;;;5025395;28;20029;-58
2021/09/16 07:47:49;;;;;;;19.52;4.90;;;16.80;99.90;;;;;;5030637;28;20033;-55
2021/09/16 07:50:14;;;;;;;11.77;5.70;;;16.90;99.90;;;;;;5029288;28;20534;-58
2021/09/16 07:52:40;;;;;;;10.82;4.78;;;17.00;99.90;;;;;;5026878;28;20028;-58
2021/09/16 07:55:06;;;;;;;13.43;4.07;;;17.30;99.90;;;;;;5027814;28;20088;-58
2021/09/16 07:57:32;;;;;;;8.98;4.70;;;17.40;99.90;;;;;;5030631;28;20025;-59
2021/09/16 07:59:58;;;;;;;17.05;5.07;;;17.60;99.90;;;;;;5025344;28;20080;-57
2021/09/16 08:02:23;;;;;;;9.48;4.00;;;17.60;99.90;;;;;;5004701;28;20045;-55
2021/09/16 08:04:49;;;;;;;8.20;3.90;;;17.60;99.90;;;;;;5025277;28;20129;-58
2021/09/16 08:07:15;;;;;;;11.13;4.47;;;17.60;99.90;;;;;;5029406;28;20053;-58
2021/09/16 08:09:40;;;;;;;12.45;4.32;;;17.60;99.90;;;;;;5026661;28;20030;-56
2021/09/16 08:12:06;;;;;;;15.43;4.90;;;17.50;99.90;;;;;;5020991;28;20038;-57
2021/09/16 08:14:32;;;;;;;12.93;3.83;;;17.40;99.90;;;;;;5024971;28;20101;-57
2021/09/16 08:16:58;;;;;;;8.30;3.58;;;17.20;99.90;;;;;;5029373;28;20061;-56
2021/09/16 08:19:24;;;;;;;12.48;4.22;;;17.40;99.90;;;;;;5023107;28;20503;-58
2021/09/16 08:21:49;;;;;;;9.75;3.72;;;17.50;99.90;;;;;;5029960;28;20040;-59
2021/09/16 08:24:15;;;;;;;8.32;3.30;;;17.80;99.90;;;;;;5029708;28;20025;-58
2021/09/16 08:26:41;;;;;;;8.68;3.60;;;17.90;99.90;;;;;;5028346;28;20025;-58
2021/09/16 08:29:07;;;;;;;6.63;3.58;;;18.00;99.90;;;;;;5028600;28;20017;-57
2021/09/16 08:31:32;;;;;;;10.65;4.13;;;18.20;99.90;;;;;;5027187;28;20026;-59
2021/09/16 08:33:58;;;;;;;6.93;3.33;;;18.40;99.90;;;;;;5028517;28;21287;-59
2021/09/16 08:36:24;;;;;;;14.02;4.47;;;18.70;99.90;;;;;;5028405;28;20037;-59
2021/09/16 08:38:49;;;;;;;13.32;4.55;;;18.50;99.90;;;;;;5029733;28;20029;-58
2021/09/16 08:41:15;;;;;;;8.38;3.95;;;18.70;99.90;;;;;;5027113;28;20055;-60
2021/09/16 08:43:43;;;;;;;11.38;4.00;;;18.80;99.90;;;;;;5028318;28;20108;-59
2021/09/16 08:46:09;;;;;;;7.95;3.97;;;19.00;99.90;;;;;;5027832;28;20036;-59
2021/09/16 08:48:34;;;;;;;14.57;3.72;;;19.30;99.90;;;;;;5029059;28;20021;-58
2021/09/16 08:51:01;;;;;;;11.40;4.30;;;19.50;99.90;;;;;;5027095;28;20024;-58
2021/09/16 08:53:28;;;;;;;9.93;4.22;;;19.40;99.90;;;;;;5027228;28;20024;-57
2021/09/16 08:55:56;;;;;;;9.57;3.88;;;19.20;99.90;;;;;;5028454;28;20033;-59
2021/09/16 08:58:25;;;;;;;6.18;3.78;;;19.00;99.90;;;;;;5028336;28;20025;-57
2021/09/16 09:00:51;;;;;;;10.75;3.67;;;19.10;99.90;;;;;;5007826;28;20046;-58
2021/09/16 09:03:17;;;;;;;7.57;4.05;;;18.90;99.90;;;;;;5028984;28;20032;-59
2021/09/16 09:05:43;;;;;;;10.45;3.35;;;19.10;99.90;;;;;;5023116;28;20116;-57
2021/09/16 09:08:09;;;;;;;7.28;3.67;;;19.30;99.90;;;;;;5013497;28;20029;-59
2021/09/16 09:10:43;;;;;;;9.45;3.97;;;19.20;99.90;;;;;;5027000;28;20030;-59
2021/09/16 09:13:21;;;;;;;9.00;2.80;;;19.40;99.90;;;;;;5025715;28;20029;-58
2021/09/16 09:15:58;;;;;;;9.77;2.97;;;19.70;99.90;;;;;;5025393;28;20030;-59
2021/09/16 09:18:23;;;;;;;10.35;2.58;;;19.60;99.90;;;;;;5032034;28;20526;-58
2021/09/16 09:21:03;;;;;;;6.75;2.42;;;19.70;99.90;;;;;;5032170;28;20033;-59
2021/09/16 09:23:35;;;;;;;6.88;2.40;;;20.10;99.90;;;;;;5029630;28;20029;-58
2021/09/16 09:26:21;;;;;;;8.73;2.53;;;20.60;99.90;;;;;;5031198;28;20655;-58
2021/09/16 09:28:47;;;;;;;5.45;2.38;;;20.50;99.90;;;;;;5028589;28;20029;-56
2021/09/16 09:31:19;;;;;;;8.25;2.65;;;20.40;99.90;;;;;;5028057;28;20021;-57
2021/09/16 09:33:45;;;;;;;9.43;2.40;;;20.30;99.90;;;;;;5032784;28;20052;-54
2021/09/16 09:36:20;;;;;;;6.68;1.95;;;20.40;99.90;;;;;;5032606;28;20030;-55
2021/09/16 09:39:01;;;;;;;5.57;1.67;;;20.40;99.90;;;;;;5032216;28;20033;-58
2021/09/16 09:41:36;;;;;;;5.35;1.50;;;20.30;99.90;;;;;;5029229;28;20029;-58
2021/09/16 09:44:13;;;;;;;3.13;1.40;;;20.50;99.90;;;;;;5032285;28;20022;-59
2021/09/16 09:46:40;;;;;;;3.95;1.23;;;20.50;99.80;;;;;;5029494;28;20114;-59
2021/09/16 09:49:08;;;;;;;5.50;1.63;;;20.60;99.90;;;;;;5032141;28;20022;-59
2021/09/16 09:51:43;;;;;;;5.35;1.30;;;20.70;99.90;;;;;;5028845;28;20021;-56
2021/09/16 09:54:30;;;;;;;3.60;1.20;;;20.80;99.20;;;;;;5015402;28;20576;-59
2021/09/16 09:57:17;;;;;;;4.38;1.35;;;20.80;99.60;;;;;;5032447;28;20540;-58
2021/09/16 09:59:51;;;;;;;3.22;1.10;;;21.10;99.30;;;;;;5024476;28;20030;-57
2021/09/16 10:02:18;;;;;;;7.15;1.45;;;21.10;99.20;;;;;;5033103;28;20030;-58
2021/09/16 10:04:44;;;;;;;2.53;1.10;;;20.90;99.00;;;;;;5029969;28;20021;-56
2021/09/16 10:07:09;;;;;;;4.20;1.15;;;21.00;99.10;;;;;;5031627;28;20558;-58
2021/09/16 10:09:36;;;;;;;7.65;1.58;;;21.00;98.60;;;;;;5029512;28;20018;-58
2021/09/16 10:12:02;;;;;;;3.97;1.40;;;21.50;98.50;;;;;;5032205;28;20481;-59
2021/09/16 10:14:28;;;;;;;6.10;1.30;;;21.80;99.10;;;;;;5028523;28;20041;-59
2021/09/16 10:16:53;;;;;;;5.85;1.20;;;21.70;98.60;;;;;;5031417;28;20799;-59
2021/09/16 10:19:19;;;;;;;4.57;1.40;;;21.70;97.70;;;;;;5031540;28;20037;-56
2021/09/16 10:21:45;;;;;;;6.43;1.77;;;21.70;98.00;;;;;;5031764;28;20029;-60
2021/09/16 10:24:17;;;;;;;4.25;1.50;;;21.70;98.70;;;;;;5028257;28;20025;-58
2021/09/16 10:26:47;;;;;;;4.57;1.25;;;22.10;97.50;;;;;;5031144;28;20036;-58
2021/09/16 10:29:28;;;;;;;4.28;1.38;;;22.20;96.70;;;;;;5025170;28;20767;-57
2021/09/16 10:32:20;;;;;;;6.85;1.75;;;22.30;96.40;;;;;;5030512;28;20123;-58
2021/09/16 10:34:56;;;;;;;1.85;0.88;;;21.70;97.60;;;;;;5028179;28;20024;-58
2021/09/16 10:37:24;;;;;;;4.53;1.17;;;21.90;96.50;;;;;;5031855;28;20087;-59
2021/09/16 10:39:50;;;;;;;3.95;1.23;;;21.90;96.50;;;;;;5026937;28;20038;-60
2021/09/16 10:42:17;;;;;;;5.22;1.20;;;21.80;96.50;;;;;;5029101;28;20506;-56
2021/09/16 10:44:44;;;;;;;2.47;1.08;;;21.90;96.70;;;;;;5030512;28;20068;-58
2021/09/16 10:47:21;;;;;;;1.98;1.10;;;21.70;96.70;;;;;;5025026;28;20026;-58
2021/09/16 10:49:49;;;;;;;5.53;1.63;;;21.50;95.90;;;;;;5028734;28;20059;-59
2021/09/16 10:52:14;;;;;;;2.78;0.98;;;21.40;97.60;;;;;;5023168;28;20018;-57
2021/09/16 10:54:47;;;;;;;3.63;1.48;;;21.60;97.50;;;;;;5014494;28;20034;-57
2021/09/16 10:57:28;;;;;;;5.75;1.15;;;21.70;96.20;;;;;;5009440;28;20547;-58
2021/09/16 10:59:53;;;;;;;3.42;1.30;;;21.40;96.60;;;;;;5026068;28;20184;-57
2021/09/16 11:02:25;;;;;;;3.95;1.00;;;21.60;96.70;;;;;;5027246;28;20069;-58
2021/09/16 11:05:06;;;;;;;6.75;1.58;;;21.80;96.60;;;;;;5025150;28;20073;-59
2021/09/16 11:10:15;;;;;;;4.93;1.60;;;21.80;96.80;;;;;;5030974;28;20121;-58
2021/09/16 11:12:42;;;;;;;4.65;1.65;;;21.70;97.10;;;;;;5025487;28;20025;-58
2021/09/16 11:15:11;;;;;;;2.08;1.30;;;21.70;96.60;;;;;;5022284;28;20070;-58
2021/09/16 11:17:39;;;;;;;3.97;1.42;;;21.90;96.70;;;;;;5027344;28;20443;-59
2021/09/16 11:20:06;;;;;;;4.93;1.40;;;22.10;96.70;;;;;;5026501;28;20029;-59
2021/09/16 11:22:32;;;;;;;4.10;1.58;;;22.00;96.20;;;;;;5029020;28;20037;-57
2021/09/16 11:24:58;;;;;;;2.85;1.40;;;21.80;96.30;;;;;;5026395;28;20056;-59
2021/09/16 11:27:26;;;;;;;5.63;1.50;;;21.50;96.20;;;;;;5027516;28;20147;-59
2021/09/16 11:29:52;;;;;;;6.53;1.73;;;21.40;97.00;;;;;;5022614;28;20440;-59
2021/09/16 11:32:18;;;;;;;4.07;1.38;;;21.00;96.80;;;;;;5028327;28;20021;-58
2021/09/16 11:34:55;;;;;;;3.03;1.50;;;20.90;97.70;;;;;;5025197;28;20026;-57
2021/09/16 11:37:28;;;;;;;6.78;1.75;;;21.10;97.60;;;;;;5027677;28;20022;-59
2021/09/16 11:39:56;;;;;;;6.10;1.58;;;20.90;97.60;;;;;;5027916;28;20037;-59
2021/09/16 11:42:22;;;;;;;6.32;2.00;;;20.80;98.10;;;;;;5026696;28;20033;-56
2021/09/16 11:44:59;;;;;;;5.15;1.77;;;20.90;98.00;;;;;;5028945;28;20554;-59
2021/09/16 11:47:26;;;;;;;8.02;2.20;;;20.90;97.30;;;;;;5029198;28;20033;-58
2021/09/16 11:49:51;;;;;;;4.22;1.90;;;20.80;97.20;;;;;;5027009;28;20113;-59
2021/09/16 11:52:19;;;;;;;3.03;1.90;;;20.70;97.80;;;;;;5027225;28;20120;-60
2021/09/16 11:55:04;;;;;;;4.90;2.00;;;20.50;97.60;;;;;;5004524;28;20080;-59
2021/09/16 11:57:30;;;;;;;5.18;1.80;;;20.30;97.90;;;;;;5027887;28;20488;-58
2021/09/16 11:59:55;;;;;;;8.90;2.30;;;20.60;97.80;;;;;;5027919;28;20041;-60
2021/09/16 12:02:21;;;;;;;4.65;2.40;;;20.80;97.70;;;;;;5029755;28;20026;-58
2021/09/16 12:04:48;;;;;;;4.15;1.75;;;21.20;96.90;;;;;;5027875;28;20033;-59
2021/09/16 12:07:17;;;;;;;5.82;1.85;;;21.20;97.10;;;;;;5028764;28;20037;-56
2021/09/16 12:09:43;;;;;;;4.65;1.83;;;21.30;96.00;;;;;;5021864;28;20022;-60
2021/09/16 12:12:10;;;;;;;7.90;2.45;;;21.50;96.00;;;;;;5030386;28;20048;-58
2021/09/16 12:14:36;;;;;;;5.10;1.80;;;21.70;95.10;;;;;;5026389;28;20443;-56
2021/09/16 12:17:04;;;;;;;4.72;1.90;;;21.60;95.80;;;;;;5029369;28;20029;-55
2021/09/16 12:19:30;;;;;;;5.10;1.80;;;21.90;95.40;;;;;;5028162;28;20069;-59
2021/09/16 12:21:56;;;;;;;3.65;1.80;;;21.90;96.00;;;;;;5034853;28;20029;-58
2021/09/16 12:24:27;;;;;;;3.55;1.60;;;22.10;95.00;;;;;;5032205;28;20043;-60
2021/09/16 12:26:55;;;;;;;3.33;1.60;;;22.10;94.50;;;;;;5031285;28;20427;-59
2021/09/16 12:29:23;;;;;;;2.17;1.50;;;22.10;94.90;;;;;;5027756;28;20028;-56
2021/09/16 12:32:08;;;;;;;3.38;1.80;;;22.40;94.90;;;;;;5029544;28;20504;-57
2021/09/16 12:34:37;;;;;;;5.65;2.65;;;22.20;95.70;;;;;;5024093;28;20022;-58
2021/09/16 12:37:14;;;;;;;3.97;1.85;;;22.30;94.10;;;;;;5027924;28;20021;-58
2021/09/16 12:39:48;;;;;;;6.25;1.63;;;21.90;95.10;;;;;;5027422;28;20033;-56
2021/09/16 12:42:35;;;;;;;4.72;1.85;;;21.70;95.30;;;;;;5029002;28;20068;-58
2021/09/16 12:45:14;;;;;;;6.90;1.63;;;21.40;95.10;;;;;;5027810;28;20025;-59